createdAt,value
2018-02-12T00:02:04.489Z,85.61
2018-02-12T00:04:32.665Z,86.38
2018-02-12T00:07:00.736Z,86.47
2018-02-12T00:09:28.836Z,86.69
2018-02-12T00:11:56.819Z,85.79
2018-02-12T00:14:24.904Z,86.03
2018-02-12T00:16:52.904Z,86.59
2018-02-12T00:19:20.890Z,86.16
2018-02-12T00:21:48.905Z,85.32
2018-02-12T00:24:16.963Z,85.91
2018-02-12T00:26:45.020Z,86.12
2018-02-12T00:29:13.061Z,86.01
2018-02-12T00:31:41.044Z,86.58
2018-02-12T00:34:09.080Z,86.70
2018-02-12T00:36:37.142Z,86.65
2018-02-12T00:39:05.200Z,86.14
2018-02-12T00:41:33.158Z,86.26
2018-02-12T00:44:01.125Z,86.65
2018-02-12T00:46:29.151Z,86.81
2018-02-12T00:48:57.142Z,86.47
2018-02-12T00:51:25.187Z,86.77
2018-02-12T00:53:53.212Z,87.46
2018-02-12T00:56:21.232Z,87.08
2018-02-12T00:58:49.206Z,87.47
2018-02-12T01:01:17.203Z,86.83
2018-02-12T01:03:45.192Z,87.32
2018-02-12T01:06:13.159Z,87.81
2018-02-12T01:08:41.168Z,88.15
2018-02-12T01:11:09.171Z,87.41
2018-02-12T01:13:37.265Z,87.73
2018-02-12T01:16:05.264Z,87.63
2018-02-12T01:18:33.236Z,87.75
2018-02-12T01:21:01.238Z,87.24
2018-02-12T01:23:29.142Z,87.09
2018-02-12T01:25:58.143Z,87.30
2018-02-12T01:28:26.232Z,87.16
2018-02-12T01:30:54.189Z,87.51
2018-02-12T01:33:22.194Z,87.88
2018-02-12T01:35:50.296Z,88.06
2018-02-12T01:38:18.205Z,87.64
2018-02-12T01:40:46.129Z,87.02
2018-02-12T01:43:14.086Z,87.04
2018-02-12T01:45:42.021Z,87.45
2018-02-12T01:48:09.935Z,87.88
2018-02-12T01:50:37.908Z,87.26
2018-02-12T01:53:05.825Z,87.05
2018-02-12T01:55:33.832Z,87.62
2018-02-12T01:58:01.794Z,87.64
2018-02-12T02:00:29.786Z,87.96
2018-02-12T02:02:58.494Z,87.74
2018-02-12T02:05:26.428Z,87.61
2018-02-12T02:07:54.394Z,87.89
2018-02-12T02:10:22.373Z,87.92
2018-02-12T02:12:50.265Z,88.20
2018-02-12T02:15:18.245Z,88.25
2018-02-12T02:17:46.243Z,87.83
2018-02-12T02:20:14.225Z,88.12
2018-02-12T02:22:42.184Z,88.44
2018-02-12T02:25:10.122Z,88.98
2018-02-12T02:27:38.360Z,89.01
2018-02-12T02:30:06.253Z,88.78
2018-02-12T02:32:34.190Z,88.58
2018-02-12T02:35:02.203Z,88.35
2018-02-12T02:37:30.297Z,88.79
2018-02-12T02:39:58.608Z,88.14
2018-02-12T02:42:26.539Z,88.60
2018-02-12T02:44:54.446Z,89.06
2018-02-12T02:47:22.371Z,89.13
2018-02-12T02:49:50.341Z,89.60
2018-02-12T02:52:19.219Z,89.60
2018-02-12T02:54:47.137Z,89.15
2018-02-12T02:57:15.069Z,89.28
2018-02-12T02:59:43.049Z,88.63
2018-02-12T03:02:10.947Z,89.57
2018-02-12T03:04:38.896Z,88.99
2018-02-12T03:07:06.917Z,88.80
2018-02-12T03:09:34.842Z,88.70
2018-02-12T03:12:02.770Z,89.12
2018-02-12T03:14:31.530Z,88.91
2018-02-12T03:16:59.497Z,88.81
2018-02-12T03:19:27.459Z,88.96
2018-02-12T03:21:55.386Z,88.24
2018-02-12T03:24:23.300Z,88.41
2018-02-12T03:26:51.226Z,88.54
2018-02-12T03:29:19.141Z,88.96
2018-02-12T03:31:47.089Z,89.06
2018-02-12T03:34:15.013Z,89.03
2018-02-12T03:36:42.938Z,88.87
2018-02-12T03:39:10.868Z,89.38
2018-02-12T03:41:38.929Z,90.05
2018-02-12T03:44:06.937Z,89.31
2018-02-12T03:46:34.883Z,89.55
2018-02-12T03:49:03.055Z,89.90
2018-02-12T03:51:30.960Z,89.38
2018-02-12T03:53:59.693Z,89.73
2018-02-12T03:56:27.606Z,89.60
2018-02-12T03:58:55.719Z,89.30
2018-02-12T04:01:23.778Z,89.92
2018-02-12T04:03:51.677Z,90.05
2018-02-12T04:06:19.745Z,89.89
2018-02-12T04:08:47.658Z,88.98
2018-02-12T04:11:15.744Z,89.30
2018-02-12T04:13:43.696Z,89.63
2018-02-12T04:16:11.625Z,89.81
2018-02-12T04:18:39.584Z,89.90
2018-02-12T04:21:07.526Z,89.44
2018-02-12T04:23:35.515Z,89.54
2018-02-12T04:26:03.421Z,89.52
2018-02-12T04:28:31.803Z,90.23
2018-02-12T04:30:59.754Z,89.37
2018-02-12T04:33:27.721Z,89.08
2018-02-12T04:35:55.727Z,90.18
2018-02-12T04:38:23.706Z,89.52
2018-02-12T04:40:51.737Z,89.52
2018-02-12T04:43:19.711Z,89.32
2018-02-12T04:45:47.663Z,88.51
2018-02-12T04:48:15.572Z,89.18
2018-02-12T04:50:43.658Z,89.26
2018-02-12T04:53:11.579Z,89.02
2018-02-12T04:55:39.500Z,88.76
2018-02-12T04:58:07.430Z,89.63
2018-02-12T05:00:35.422Z,88.77
2018-02-12T05:03:03.350Z,89.09
2018-02-12T05:05:31.267Z,88.86
2018-02-12T05:07:59.190Z,88.73
2018-02-12T05:10:27.123Z,88.83
2018-02-12T05:12:55.126Z,87.91
2018-02-12T05:15:23.032Z,88.70
2018-02-12T05:17:50.991Z,88.48
2018-02-12T05:20:18.969Z,88.51
2018-02-12T05:22:46.921Z,89.15
2018-02-12T05:25:14.845Z,88.44
2018-02-12T05:27:42.773Z,88.20
2018-02-12T05:30:10.703Z,88.04
2018-02-12T05:32:38.598Z,88.42
2018-02-12T05:35:06.932Z,88.57
2018-02-12T05:37:34.924Z,88.02
2018-02-12T05:40:02.834Z,87.70
2018-02-12T05:42:30.761Z,87.70
2018-02-12T05:44:58.701Z,87.19
2018-02-12T05:47:26.809Z,87.43
2018-02-12T05:49:54.793Z,87.42
2018-02-12T05:52:22.736Z,87.66
2018-02-12T05:54:50.702Z,87.77
2018-02-12T05:57:18.654Z,87.73
2018-02-12T05:59:46.638Z,87.36
2018-02-12T06:02:14.536Z,87.34
2018-02-12T06:04:42.457Z,87.72
2018-02-12T06:07:10.367Z,86.74
2018-02-12T06:09:38.295Z,87.60
2018-02-12T06:12:06.340Z,87.17
2018-02-12T06:14:34.334Z,86.87
2018-02-12T06:17:02.304Z,87.11
2018-02-12T06:19:30.217Z,86.77
2018-02-12T06:21:58.257Z,87.18
2018-02-12T06:24:26.192Z,87.34
2018-02-12T06:26:54.090Z,88.16
2018-02-12T06:29:22.027Z,87.93
2018-02-12T06:31:50.027Z,87.94
2018-02-12T06:34:17.929Z,87.47
2018-02-12T06:36:45.853Z,87.22
2018-02-12T06:39:13.789Z,88.15
2018-02-12T06:41:41.693Z,88.07
2018-02-12T06:44:09.646Z,87.37
2018-02-12T06:46:37.593Z,87.00
2018-02-12T06:49:05.597Z,87.13
2018-02-12T06:51:33.584Z,86.95
2018-02-12T06:54:01.515Z,86.99
2018-02-12T06:56:29.606Z,86.83
2018-02-12T06:58:57.526Z,86.75
2018-02-12T07:01:25.444Z,86.50
2018-02-12T07:03:53.376Z,86.83
2018-02-12T07:06:21.389Z,87.19
2018-02-12T07:08:49.323Z,86.23
2018-02-12T07:11:17.458Z,86.32
2018-02-12T07:13:45.437Z,86.24
2018-02-12T07:16:13.913Z,86.06
2018-02-12T07:18:41.889Z,85.61
2018-02-12T07:21:09.917Z,85.35
2018-02-12T07:23:37.870Z,85.68
2018-02-12T07:26:05.885Z,85.35
2018-02-12T07:28:33.795Z,85.15
2018-02-12T07:31:01.814Z,85.20
2018-02-12T07:33:29.722Z,84.46
2018-02-12T07:35:57.650Z,84.50
2018-02-12T07:38:25.562Z,84.33
2018-02-12T07:40:53.577Z,84.26
2018-02-12T07:43:21.543Z,83.78
2018-02-12T07:45:49.450Z,84.61
2018-02-12T07:48:17.451Z,83.32
2018-02-12T07:50:45.610Z,83.32
2018-02-12T07:53:13.517Z,83.85
2018-02-12T07:55:41.445Z,84.07
2018-02-12T07:58:09.486Z,82.94
2018-02-12T08:00:37.421Z,83.19
2018-02-12T08:03:05.321Z,83.76
2018-02-12T08:05:33.224Z,82.90
2018-02-12T08:08:02.049Z,83.39
2018-02-12T08:10:29.966Z,83.39
2018-02-12T08:12:57.973Z,82.62
2018-02-12T08:15:25.941Z,82.75
2018-02-12T08:17:53.857Z,83.00
2018-02-12T08:20:21.817Z,82.41
2018-02-12T08:22:49.733Z,83.26
2018-02-12T08:25:17.661Z,82.96
2018-02-12T08:27:45.647Z,83.12
2018-02-12T08:30:13.558Z,82.49
2018-02-12T08:32:41.481Z,82.71
2018-02-12T08:35:09.561Z,82.04
2018-02-12T08:37:37.543Z,81.91
2018-02-12T08:40:05.457Z,81.82
2018-02-12T08:42:33.453Z,82.07
2018-02-12T08:45:01.362Z,81.27
2018-02-12T08:47:29.273Z,81.98
2018-02-12T08:49:57.222Z,81.51
2018-02-12T08:52:25.295Z,82.03
2018-02-12T08:54:53.300Z,82.15
2018-02-12T08:57:21.276Z,81.57
2018-02-12T08:59:49.211Z,82.31
2018-02-12T09:02:17.169Z,81.64
2018-02-12T09:04:45.328Z,86.61
2018-02-12T09:07:13.225Z,83.42
2018-02-12T09:09:41.145Z,80.17
2018-02-12T09:12:09.149Z,78.66
2018-02-12T09:14:37.094Z,79.61
2018-02-12T09:17:05.037Z,80.78
2018-02-12T09:19:32.978Z,81.16
2018-02-12T09:22:00.896Z,81.39
2018-02-12T09:24:28.831Z,80.54
2018-02-12T09:26:56.725Z,82.27
2018-02-12T09:29:24.681Z,83.00
2018-02-12T09:31:52.625Z,84.68
2018-02-12T09:34:20.783Z,84.83
2018-02-12T09:36:48.776Z,85.77
2018-02-12T09:39:16.784Z,86.17
2018-02-12T09:41:44.716Z,86.32
2018-02-12T09:44:12.641Z,86.93
2018-02-12T09:46:40.593Z,85.40
2018-02-12T09:49:08.518Z,85.53
2018-02-12T09:51:36.620Z,84.71
2018-02-12T09:54:04.506Z,84.73
2018-02-12T09:56:32.460Z,84.38
2018-02-12T09:59:00.361Z,84.87
2018-02-12T10:01:28.277Z,84.93
2018-02-12T10:03:56.324Z,84.97
2018-02-12T10:06:24.248Z,85.55
2018-02-12T10:08:52.139Z,86.14
2018-02-12T10:11:20.082Z,85.58
2018-02-12T10:13:47.980Z,85.61
2018-02-12T10:16:15.981Z,85.93
2018-02-12T10:18:43.898Z,85.32
2018-02-12T10:21:11.833Z,85.40
2018-02-12T10:23:39.854Z,86.87
2018-02-12T10:26:07.954Z,87.44
2018-02-12T10:28:35.972Z,87.54
2018-02-12T10:31:03.985Z,87.64
2018-02-12T10:33:31.934Z,87.17
2018-02-12T10:35:59.872Z,87.07
2018-02-12T10:38:27.809Z,89.91
2018-02-12T10:40:55.739Z,87.56
2018-02-12T10:43:23.735Z,87.27
2018-02-12T10:45:51.617Z,88.13
2018-02-12T10:48:19.611Z,87.92
2018-02-12T10:50:47.612Z,88.11
2018-02-12T10:53:15.549Z,88.96
2018-02-12T10:55:43.473Z,85.87
2018-02-12T10:58:11.418Z,85.18
2018-02-12T11:00:39.381Z,86.63
2018-02-12T11:03:07.301Z,87.12
2018-02-12T11:05:35.239Z,86.77
2018-02-12T11:08:03.185Z,86.35
2018-02-12T11:10:31.130Z,86.24
2018-02-12T11:12:59.054Z,86.13
2018-02-12T11:15:27.033Z,86.76
2018-02-12T11:17:54.973Z,87.30
2018-02-12T11:20:22.876Z,87.67
2018-02-12T11:22:50.839Z,88.48
2018-02-12T11:25:18.757Z,89.05
2018-02-12T11:27:46.682Z,89.17
2018-02-12T11:30:14.612Z,89.62
2018-02-12T11:32:42.567Z,90.50
2018-02-12T11:35:10.449Z,90.82
2018-02-12T11:37:38.400Z,91.52
2018-02-12T11:40:06.297Z,92.66
2018-02-12T11:42:34.202Z,93.20
2018-02-12T11:45:02.128Z,93.30
2018-02-12T11:47:30.581Z,93.97
2018-02-12T11:49:58.590Z,94.97
2018-02-12T11:52:26.558Z,95.03
2018-02-12T11:54:54.545Z,96.05
2018-02-12T11:57:22.444Z,95.23
2018-02-12T11:59:50.393Z,95.33
2018-02-12T12:02:18.329Z,94.91
2018-02-12T12:04:46.250Z,94.57
2018-02-12T12:07:14.223Z,94.69
2018-02-12T12:09:42.279Z,94.30
2018-02-12T12:12:10.159Z,94.36
2018-02-12T12:14:38.074Z,94.60
2018-02-12T12:17:06.013Z,94.39
2018-02-12T12:19:34.087Z,94.65
2018-02-12T12:22:02.221Z,94.40
2018-02-12T12:24:30.156Z,94.30
2018-02-12T12:26:58.084Z,94.78
2018-02-12T12:29:26.061Z,93.88
2018-02-12T12:31:53.997Z,94.27
2018-02-12T12:34:21.941Z,93.18
2018-02-12T12:36:49.892Z,92.75
2018-02-12T12:39:17.962Z,92.24
2018-02-12T12:41:45.915Z,90.94
2018-02-12T12:44:13.837Z,90.67
2018-02-12T12:46:41.767Z,89.73
2018-02-12T12:49:09.765Z,89.54
2018-02-12T12:51:37.744Z,89.31
2018-02-12T12:54:06.570Z,89.29
2018-02-12T12:56:34.474Z,89.21
2018-02-12T12:59:02.521Z,88.60
2018-02-12T13:01:30.475Z,88.24
2018-02-12T13:03:58.414Z,87.62
2018-02-12T13:06:26.346Z,88.01
2018-02-12T13:08:54.252Z,88.20
2018-02-12T13:11:22.218Z,88.16
2018-02-12T13:13:50.145Z,88.76
2018-02-12T13:16:18.061Z,87.98
2018-02-12T13:18:46.058Z,88.11
2018-02-12T13:21:13.973Z,87.23
2018-02-12T13:23:41.915Z,86.92
2018-02-12T13:26:09.841Z,86.30
2018-02-12T13:28:37.831Z,86.65
2018-02-12T13:31:05.736Z,86.28
2018-02-12T13:33:33.665Z,86.79
2018-02-12T13:36:01.597Z,86.06
2018-02-12T13:38:29.522Z,85.61
2018-02-12T13:40:57.450Z,84.49
2018-02-12T13:43:25.393Z,86.06
2018-02-12T13:45:53.319Z,85.18
2018-02-12T13:48:21.429Z,84.48
2018-02-12T13:50:49.492Z,83.15
2018-02-12T13:53:17.430Z,84.56
2018-02-12T13:55:45.429Z,83.95
2018-02-12T13:58:13.521Z,84.79
2018-02-12T14:00:41.427Z,83.94
2018-02-12T14:03:09.373Z,83.95
2018-02-12T14:05:37.379Z,84.38
2018-02-12T14:08:05.350Z,84.32
2018-02-12T14:10:33.338Z,83.74
2018-02-12T14:13:01.271Z,84.54
2018-02-12T14:15:29.200Z,83.76
2018-02-12T14:17:57.108Z,84.87
2018-02-12T14:20:25.021Z,84.18
2018-02-12T14:22:52.929Z,84.03
2018-02-12T14:25:20.857Z,83.71
2018-02-12T14:27:49.617Z,83.84
2018-02-12T14:30:17.621Z,83.85
2018-02-12T14:32:45.523Z,84.35
2018-02-12T14:35:13.487Z,83.35
2018-02-12T14:37:41.400Z,83.13
2018-02-12T14:40:09.381Z,82.89
2018-02-12T14:42:37.299Z,82.78
2018-02-12T14:45:06.072Z,82.84
2018-02-12T14:47:33.997Z,82.56
2018-02-12T14:50:02.489Z,82.28
2018-02-12T14:52:30.405Z,81.99
2018-02-12T14:54:58.342Z,81.36
2018-02-12T14:57:26.441Z,82.07
2018-02-12T14:59:54.457Z,81.56
2018-02-12T15:02:22.377Z,80.81
2018-02-12T15:04:50.365Z,81.33
2018-02-12T15:07:18.313Z,80.75
2018-02-12T15:09:46.262Z,80.64
2018-02-12T15:12:14.197Z,80.57
2018-02-12T15:14:42.295Z,80.31
2018-02-12T15:17:10.200Z,79.75
2018-02-12T15:19:38.131Z,79.15
2018-02-12T15:22:06.132Z,78.75
2018-02-12T15:24:34.203Z,78.62
2018-02-12T15:27:02.165Z,78.80
2018-02-12T15:29:30.070Z,78.97
2018-02-12T15:31:58.693Z,79.37
2018-02-12T15:34:26.624Z,80.27
2018-02-12T15:36:54.517Z,79.83
2018-02-12T15:39:22.453Z,78.82
2018-02-12T15:41:50.480Z,78.59
2018-02-12T15:44:18.386Z,78.44
2018-02-12T15:46:46.293Z,78.40
2018-02-12T15:49:14.417Z,78.86
2018-02-12T15:51:42.377Z,79.31
2018-02-12T15:54:10.285Z,79.59
2018-02-12T15:56:38.222Z,79.66
2018-02-12T15:59:06.150Z,80.15
2018-02-12T16:01:34.136Z,80.41
2018-02-12T16:04:02.044Z,81.84
2018-02-12T16:06:30.061Z,80.86
2018-02-12T16:08:57.965Z,80.34
2018-02-12T16:11:25.929Z,80.70
2018-02-12T16:13:53.845Z,80.03
2018-02-12T16:16:21.796Z,80.36
2018-02-12T16:18:49.813Z,79.66
2018-02-12T16:21:17.727Z,80.68
2018-02-12T16:23:45.802Z,80.84
2018-02-12T16:26:13.712Z,80.81
2018-02-12T16:28:41.690Z,81.27
2018-02-12T16:31:09.924Z,81.84
2018-02-12T16:33:37.837Z,81.57
2018-02-12T16:36:05.755Z,81.05
2018-02-12T16:38:33.747Z,82.07
2018-02-12T16:41:01.834Z,82.69
2018-02-12T16:43:29.864Z,82.55
2018-02-12T16:45:57.793Z,82.89
2018-02-12T16:48:25.807Z,82.85
2018-02-12T16:50:53.722Z,83.45
2018-02-12T16:53:21.696Z,83.40
2018-02-12T16:55:49.718Z,83.77
2018-02-12T16:58:17.621Z,83.17
2018-02-12T17:00:45.594Z,83.78
2018-02-12T17:03:13.524Z,84.16
2018-02-12T17:05:41.456Z,84.29
2018-02-12T17:08:09.429Z,84.58
2018-02-12T17:10:37.353Z,84.43
2018-02-12T17:13:05.253Z,84.67
2018-02-12T17:15:33.917Z,85.27
2018-02-12T17:18:02.530Z,85.26
2018-02-12T17:20:30.457Z,85.28
2018-02-12T17:22:58.398Z,85.03
2018-02-12T17:25:26.319Z,86.03
2018-02-12T17:27:54.297Z,85.38
2018-02-12T17:30:22.257Z,84.64
2018-02-12T17:32:50.201Z,84.52
2018-02-12T17:35:18.104Z,85.22
2018-02-12T17:37:46.272Z,84.51
2018-02-12T17:40:14.203Z,84.77
2018-02-12T17:42:42.210Z,84.63
2018-02-12T17:45:10.653Z,86.33
2018-02-12T17:47:38.681Z,82.39
2018-02-12T17:50:06.553Z,81.59
2018-02-12T17:52:34.507Z,81.00
2018-02-12T17:55:02.390Z,80.62
2018-02-12T17:57:30.341Z,80.24
2018-02-12T17:59:58.389Z,82.37
2018-02-12T18:02:26.320Z,82.30
2018-02-12T18:04:54.264Z,82.84
2018-02-12T18:07:22.346Z,82.65
2018-02-12T18:09:50.201Z,83.04
2018-02-12T18:12:18.129Z,83.19
2018-02-12T18:14:46.070Z,83.61
2018-02-12T18:17:13.970Z,83.81
2018-02-12T18:19:41.874Z,83.78
2018-02-12T18:22:09.872Z,83.84
2018-02-12T18:24:38.916Z,83.63
2018-02-12T18:27:06.872Z,83.68
2018-02-12T18:29:34.794Z,84.64
2018-02-12T18:32:02.913Z,84.19
2018-02-12T18:34:30.813Z,84.58
2018-02-12T18:36:58.736Z,84.26
2018-02-12T18:39:26.650Z,84.64
2018-02-12T18:41:55.133Z,84.92
2018-02-12T18:44:23.234Z,83.60
2018-02-12T18:46:51.805Z,83.57
2018-02-12T18:49:19.697Z,84.32
2018-02-12T18:51:47.624Z,84.41
2018-02-12T18:54:15.721Z,84.61
2018-02-12T18:56:43.635Z,84.77
2018-02-12T18:59:11.528Z,84.75
2018-02-12T19:01:39.505Z,84.82
2018-02-12T19:04:07.438Z,84.93
2018-02-12T19:06:35.407Z,85.22
2018-02-12T19:09:03.293Z,85.29
2018-02-12T19:11:31.205Z,85.65
2018-02-12T19:13:59.106Z,85.76
2018-02-12T19:16:27.181Z,85.72
2018-02-12T19:18:55.110Z,85.91
2018-02-12T19:21:23.009Z,85.76
2018-02-12T19:23:51.404Z,85.94
2018-02-12T19:26:19.437Z,85.95
2018-02-12T19:28:47.517Z,86.03
2018-02-12T19:31:15.425Z,86.50
2018-02-12T19:33:43.402Z,85.63
2018-02-12T19:36:11.307Z,86.06
2018-02-12T19:38:39.229Z,85.43
2018-02-12T19:41:07.142Z,85.84
2018-02-12T19:43:35.083Z,85.71
2018-02-12T19:46:03.017Z,86.48
2018-02-12T19:48:30.916Z,86.40
2018-02-12T19:50:58.849Z,86.22
2018-02-12T19:53:26.854Z,85.55
2018-02-12T19:55:54.754Z,86.51
2018-02-12T19:58:22.772Z,86.40
2018-02-12T20:00:50.813Z,86.04
2018-02-12T20:03:18.733Z,85.87
2018-02-12T20:05:46.681Z,86.45
2018-02-12T20:08:14.616Z,86.13
2018-02-12T20:10:42.534Z,85.84
2018-02-12T20:13:10.486Z,86.69
2018-02-12T20:15:38.409Z,86.51
2018-02-12T20:18:06.399Z,86.89
2018-02-12T20:20:34.394Z,86.89
2018-02-12T20:23:02.395Z,86.75
2018-02-12T20:25:30.300Z,86.93
2018-02-12T20:27:58.392Z,87.17
2018-02-12T20:30:26.404Z,86.82
2018-02-12T20:32:54.332Z,86.83
2018-02-12T20:35:22.238Z,87.77
2018-02-12T20:37:50.157Z,88.31
2018-02-12T20:40:18.077Z,88.26
2018-02-12T20:42:46.103Z,88.97
2018-02-12T20:45:14.026Z,89.84
2018-02-12T20:47:41.983Z,90.06
2018-02-12T20:50:10.655Z,90.07
2018-02-12T20:52:39.380Z,90.33
2018-02-12T20:55:07.350Z,90.05
2018-02-12T20:57:35.379Z,89.86
2018-02-12T21:00:03.288Z,89.75
2018-02-12T21:02:31.249Z,89.36
2018-02-12T21:04:59.224Z,89.25
2018-02-12T21:07:27.242Z,88.96
2018-02-12T21:09:55.154Z,88.31
2018-02-12T21:12:23.101Z,88.29
2018-02-12T21:14:51.290Z,89.35
2018-02-12T21:17:19.176Z,88.71
2018-02-12T21:19:47.172Z,89.29
2018-02-12T21:22:15.073Z,88.65
2018-02-12T21:24:43.086Z,88.42
2018-02-12T21:27:11.185Z,88.29
2018-02-12T21:29:39.124Z,88.22
2018-02-12T21:32:07.033Z,88.65
2018-02-12T21:34:35.009Z,88.16
2018-02-12T21:37:03.339Z,88.71
2018-02-12T21:39:31.309Z,88.83
2018-02-12T21:41:59.233Z,88.80
2018-02-12T21:44:27.141Z,88.44
2018-02-12T21:46:55.068Z,88.28
2018-02-12T21:49:23.022Z,88.99
2018-02-12T21:51:51.018Z,89.50
2018-02-12T21:54:19.024Z,88.83
2018-02-12T21:56:47.287Z,89.05
2018-02-12T21:59:15.217Z,89.55
2018-02-12T22:01:43.208Z,89.90
2018-02-12T22:04:11.179Z,89.38
2018-02-12T22:06:39.149Z,89.97
2018-02-12T22:09:07.094Z,89.87
2018-02-12T22:11:35.018Z,89.47
2018-02-12T22:14:02.933Z,89.68
2018-02-12T22:16:30.908Z,88.88
2018-02-12T22:18:58.883Z,89.14
2018-02-12T22:21:26.764Z,89.76
2018-02-12T22:23:54.977Z,88.81
2018-02-12T22:26:22.950Z,88.68
2018-02-12T22:28:51.003Z,88.86
2018-02-12T22:31:18.890Z,89.23
2018-02-12T22:33:46.840Z,88.95
2018-02-12T22:36:14.770Z,89.22
2018-02-12T22:38:43.401Z,88.72
2018-02-12T22:41:11.350Z,89.10
2018-02-12T22:43:39.373Z,88.80
2018-02-12T22:46:07.312Z,88.97
2018-02-12T22:48:36.037Z,89.48
2018-02-12T22:51:03.944Z,89.38
2018-02-12T22:53:31.945Z,89.33
2018-02-12T22:55:59.890Z,89.18
2018-02-12T22:58:27.838Z,89.28
2018-02-12T23:00:55.761Z,89.56
2018-02-12T23:03:23.673Z,89.87
2018-02-12T23:05:51.617Z,89.18
2018-02-12T23:08:19.565Z,89.49
2018-02-12T23:10:47.676Z,88.46
2018-02-12T23:13:15.668Z,89.21
2018-02-12T23:15:43.576Z,89.54
2018-02-12T23:18:11.651Z,89.53
2018-02-12T23:20:39.691Z,89.82
2018-02-12T23:23:07.605Z,89.83
2018-02-12T23:25:35.524Z,90.41
2018-02-12T23:28:03.667Z,89.77
2018-02-12T23:30:31.597Z,89.83
2018-02-12T23:32:59.609Z,89.34
2018-02-12T23:35:27.537Z,89.59
2018-02-12T23:37:55.464Z,89.70
2018-02-12T23:40:23.442Z,90.05
2018-02-12T23:42:51.361Z,90.46
2018-02-12T23:45:19.337Z,90.24
2018-02-12T23:47:47.281Z,90.03
2018-02-12T23:50:15.196Z,89.77
2018-02-12T23:52:43.166Z,89.10
2018-02-12T23:55:11.159Z,89.38
2018-02-12T23:57:39.074Z,90.08
